createdAt,value
2018-11-06T00:03:52.774Z,46.15
2018-11-06T00:08:56.405Z,40.04
2018-11-06T00:14:00.007Z,37.13
2018-11-06T00:19:03.548Z,36.46
2018-11-06T00:24:07.411Z,35.94
2018-11-06T00:29:12.867Z,35.83
2018-11-06T00:34:16.845Z,44.91
2018-11-06T00:39:20.575Z,47.88
2018-11-06T00:44:24.142Z,55.71
2018-11-06T00:49:27.657Z,69.95
2018-11-06T00:54:31.300Z,64.53
2018-11-06T00:59:34.939Z,55.18
2018-11-06T01:04:38.657Z,53.88
2018-11-06T01:09:42.144Z,70.70
2018-11-06T01:14:45.795Z,68.47
2018-11-06T01:19:49.373Z,60.94
2018-11-06T01:24:52.977Z,65.80
2018-11-06T01:29:56.513Z,70.47
2018-11-06T01:35:00.156Z,52.56
2018-11-06T01:40:03.731Z,29.68
2018-11-06T01:45:09.703Z,13.05
2018-11-06T01:50:15.273Z,7.10
2018-11-06T01:55:18.854Z,14.20
2018-11-06T02:00:33.267Z,39.14
2018-11-06T02:05:37.151Z,47.52
2018-11-06T02:10:40.725Z,58.33
2018-11-06T02:15:44.344Z,75.86
2018-11-06T02:20:50.655Z,67.61
2018-11-06T02:25:54.362Z,61.00
2018-11-06T02:30:57.921Z,64.81
2018-11-06T02:36:01.446Z,70.49
2018-11-06T02:41:05.543Z,81.86
2018-11-06T02:46:09.280Z,72.60
2018-11-06T02:51:12.971Z,66.65
2018-11-06T02:56:17.012Z,69.50
2018-11-06T03:01:20.564Z,86.73
2018-11-06T03:06:24.103Z,73.49
2018-11-06T03:11:27.638Z,55.17
2018-11-06T03:16:31.213Z,39.77
2018-11-06T03:21:35.206Z,35.62
2018-11-06T03:26:38.754Z,0.07
2018-11-06T03:31:42.370Z,0.00
2018-11-06T03:36:45.917Z,0.00
2018-11-06T03:41:49.680Z,0.00
2018-11-06T03:46:53.258Z,0.00
2018-11-06T03:51:56.882Z,0.00
2018-11-06T03:57:09.141Z,0.00
2018-11-06T04:02:12.702Z,0.00
2018-11-06T04:07:16.315Z,0.00
2018-11-06T04:12:19.937Z,0.00
2018-11-06T04:17:23.373Z,0.00
2018-11-06T04:22:26.988Z,0.00
2018-11-06T04:27:30.508Z,0.00
2018-11-06T04:32:34.120Z,0.00
2018-11-06T04:37:38.558Z,0.00
2018-11-06T04:42:42.463Z,0.00
2018-11-06T04:47:49.430Z,0.00
2018-11-06T04:52:53.097Z,0.00
2018-11-06T04:57:56.701Z,0.00
2018-11-06T05:03:00.300Z,0.00
2018-11-06T05:08:03.759Z,0.00
2018-11-06T05:13:07.401Z,0.00
2018-11-06T05:18:10.911Z,0.00
2018-11-06T05:23:14.509Z,0.00
2018-11-06T05:28:18.127Z,0.00
2018-11-06T05:33:30.362Z,0.00
2018-11-06T05:38:33.812Z,0.00
2018-11-06T05:43:38.383Z,0.00
2018-11-06T05:48:41.930Z,0.50
2018-11-06T05:53:45.606Z,19.79
2018-11-06T05:58:49.453Z,21.56
2018-11-06T06:03:53.568Z,4.03
2018-11-06T06:08:57.196Z,0.00
2018-11-06T06:14:00.903Z,4.82
2018-11-06T06:19:07.038Z,0.00
2018-11-06T06:24:10.716Z,7.11
2018-11-06T06:29:14.405Z,32.01
2018-11-06T06:34:18.430Z,56.41
2018-11-06T06:39:25.433Z,31.64
2018-11-06T06:44:29.122Z,15.57
2018-11-06T06:49:32.727Z,0.00
2018-11-06T06:54:36.833Z,0.00
2018-11-06T06:59:40.221Z,0.00
2018-11-06T07:04:43.687Z,0.00
2018-11-06T07:09:47.237Z,20.95
2018-11-06T07:14:50.765Z,31.91
2018-11-06T07:19:54.374Z,45.66
2018-11-06T07:24:57.824Z,32.42
2018-11-06T07:30:01.621Z,24.00
2018-11-06T07:35:06.476Z,24.57
2018-11-06T07:40:11.789Z,46.10
2018-11-06T07:45:16.867Z,28.90
2018-11-06T07:50:20.639Z,23.22
2018-11-06T07:55:24.161Z,22.41
2018-11-06T08:00:27.819Z,19.10
2018-11-06T08:05:31.413Z,31.31
2018-11-06T08:10:35.086Z,49.80
2018-11-06T08:15:38.796Z,75.21
2018-11-06T08:20:42.480Z,81.86
2018-11-06T08:25:45.919Z,83.32
2018-11-06T08:30:49.677Z,87.54
2018-11-06T08:35:53.005Z,100.00
2018-11-06T08:40:56.639Z,100.00
2018-11-06T08:46:00.133Z,100.00
2018-11-06T08:51:05.043Z,100.00
2018-11-06T08:56:08.726Z,100.00
2018-11-06T09:01:12.737Z,100.00
2018-11-06T09:06:16.248Z,100.00
2018-11-06T09:11:19.809Z,100.00
2018-11-06T09:16:23.413Z,100.00
2018-11-06T09:21:27.137Z,100.00
2018-11-06T09:26:30.728Z,100.00
2018-11-06T09:31:34.843Z,100.00
2018-11-06T09:36:39.049Z,100.00
2018-11-06T09:41:42.759Z,100.00
2018-11-06T09:46:46.287Z,100.00
2018-11-06T09:51:49.962Z,100.00
2018-11-06T09:56:53.546Z,100.00
2018-11-06T10:01:57.222Z,100.00
2018-11-06T10:07:01.151Z,100.00
2018-11-06T10:12:04.355Z,100.00
2018-11-06T10:17:07.998Z,100.00
2018-11-06T10:22:11.742Z,99.75
2018-11-06T10:27:15.334Z,94.07
2018-11-06T10:32:18.942Z,91.65
2018-11-06T10:37:22.543Z,90.33
2018-11-06T10:42:26.081Z,86.52
2018-11-06T10:47:29.684Z,85.27
2018-11-06T10:52:33.566Z,83.39
2018-11-06T10:57:38.828Z,82.11
2018-11-06T11:02:47.838Z,84.17
2018-11-06T11:07:51.548Z,84.79
2018-11-06T11:12:55.348Z,84.90
2018-11-06T11:17:59.147Z,84.13
2018-11-06T11:23:02.813Z,82.45
2018-11-06T11:28:06.397Z,81.46
2018-11-06T11:33:09.941Z,78.07
2018-11-06T11:38:13.520Z,78.23
2018-11-06T11:43:17.127Z,78.21
2018-11-06T11:48:20.654Z,78.31
2018-11-06T11:53:24.294Z,78.10
2018-11-06T11:58:27.866Z,79.91
2018-11-06T12:03:31.525Z,76.49
2018-11-06T12:08:35.087Z,74.62
2018-11-06T12:13:38.756Z,75.37
2018-11-06T12:18:42.450Z,75.10
2018-11-06T12:23:46.066Z,73.52
2018-11-06T12:28:49.656Z,71.60
2018-11-06T12:33:53.249Z,72.39
2018-11-06T12:38:56.805Z,70.99
2018-11-06T12:44:00.444Z,68.15
2018-11-06T12:49:04.070Z,69.10
2018-11-06T12:54:07.859Z,68.67
2018-11-06T12:59:11.407Z,67.17
2018-11-06T13:04:15.094Z,68.60
2018-11-06T13:09:18.924Z,67.64
2018-11-06T13:14:22.497Z,67.05
2018-11-06T13:19:26.069Z,65.80
2018-11-06T13:24:29.617Z,66.71
2018-11-06T13:29:33.205Z,65.70
2018-11-06T13:34:36.915Z,64.34
2018-11-06T13:39:40.389Z,65.19
2018-11-06T13:44:44.302Z,64.92
2018-11-06T13:49:47.481Z,64.78
2018-11-06T13:54:51.078Z,66.86
2018-11-06T13:59:54.635Z,71.94
2018-11-06T14:04:58.254Z,77.41
2018-11-06T14:10:02.029Z,81.50
2018-11-06T14:15:05.776Z,81.77
2018-11-06T14:20:11.591Z,82.84
2018-11-06T14:25:15.219Z,84.24
2018-11-06T14:30:25.003Z,86.00
2018-11-06T14:35:28.595Z,87.81
2018-11-06T14:40:32.447Z,88.66
2018-11-06T14:45:36.106Z,90.67
2018-11-06T14:50:39.566Z,91.03
2018-11-06T14:55:43.199Z,93.25
2018-11-06T15:00:46.812Z,92.94
2018-11-06T15:05:50.657Z,93.89
2018-11-06T15:10:54.207Z,94.53
2018-11-06T15:15:57.826Z,95.50
2018-11-06T15:21:01.451Z,96.78
2018-11-06T15:26:04.890Z,98.38
2018-11-06T15:31:08.467Z,100.00
2018-11-06T15:36:12.226Z,100.00
2018-11-06T15:41:15.928Z,100.00
2018-11-06T15:46:19.447Z,100.00
2018-11-06T15:51:23.151Z,100.00
2018-11-06T15:56:26.703Z,100.00
2018-11-06T16:01:30.336Z,100.00
2018-11-06T16:06:33.915Z,100.00
2018-11-06T16:11:37.386Z,100.00
2018-11-06T16:16:40.991Z,100.00
2018-11-06T16:21:44.682Z,100.00
2018-11-06T16:26:48.293Z,100.00
2018-11-06T16:31:51.886Z,100.00
2018-11-06T16:36:55.561Z,100.00
2018-11-06T16:41:59.061Z,100.00
2018-11-06T16:47:02.641Z,100.00
2018-11-06T16:52:06.360Z,100.00
2018-11-06T16:57:10.015Z,100.00
2018-11-06T17:02:13.653Z,100.00
2018-11-06T17:07:17.177Z,100.00
2018-11-06T17:12:20.754Z,100.00
2018-11-06T17:17:24.259Z,100.00
2018-11-06T17:22:27.867Z,100.00
2018-11-06T17:27:31.479Z,100.00
2018-11-06T17:32:35.186Z,100.00
2018-11-06T17:37:39.421Z,100.00
2018-11-06T17:42:43.610Z,100.00
2018-11-06T17:47:47.206Z,100.00
2018-11-06T17:52:50.802Z,100.00
2018-11-06T17:57:54.394Z,100.00
2018-11-06T18:02:58.399Z,100.00
2018-11-06T18:08:01.984Z,100.00
2018-11-06T18:13:06.011Z,100.00
2018-11-06T18:18:09.823Z,100.00
2018-11-06T18:23:13.804Z,100.00
2018-11-06T18:28:17.318Z,100.00
2018-11-06T18:33:20.924Z,100.00
2018-11-06T18:38:24.685Z,100.00
2018-11-06T18:43:28.177Z,100.00
2018-11-06T18:48:31.855Z,100.00
2018-11-06T18:53:35.507Z,100.00
2018-11-06T18:58:39.170Z,100.00
2018-11-06T19:03:49.822Z,100.00
2018-11-06T19:08:53.533Z,100.00
2018-11-06T19:13:57.510Z,100.00
2018-11-06T19:19:01.219Z,100.00
2018-11-06T19:24:08.940Z,100.00
2018-11-06T19:29:12.511Z,100.00
2018-11-06T19:34:23.966Z,100.00
2018-11-06T19:39:27.651Z,100.00
2018-11-06T19:44:31.290Z,100.00
2018-11-06T19:49:39.894Z,100.00
2018-11-06T19:54:43.591Z,100.00
2018-11-06T19:59:47.128Z,100.00
2018-11-06T20:04:50.989Z,100.00
2018-11-06T20:09:54.577Z,100.00
2018-11-06T20:14:58.228Z,100.00
2018-11-06T20:20:02.090Z,100.00
2018-11-06T20:25:05.855Z,100.00
2018-11-06T20:30:15.123Z,100.00
2018-11-06T20:35:21.107Z,100.00
2018-11-06T20:40:26.387Z,100.00
2018-11-06T20:45:30.140Z,100.00
2018-11-06T20:50:33.645Z,100.00
2018-11-06T20:55:37.354Z,100.00
2018-11-06T21:00:41.005Z,100.00
2018-11-06T21:05:44.710Z,100.00
2018-11-06T21:10:49.021Z,100.00
2018-11-06T21:15:53.065Z,100.00
2018-11-06T21:20:58.008Z,100.00
2018-11-06T21:26:03.439Z,100.00
2018-11-06T21:31:08.163Z,100.00
2018-11-06T21:36:11.858Z,100.00
2018-11-06T21:41:15.577Z,100.00
2018-11-06T21:46:19.397Z,100.00
2018-11-06T21:51:23.038Z,100.00
2018-11-06T21:56:26.772Z,100.00
2018-11-06T22:01:30.439Z,100.00
2018-11-06T22:06:35.057Z,100.00
2018-11-06T22:11:38.561Z,100.00
2018-11-06T22:16:42.325Z,100.00
2018-11-06T22:21:46.038Z,100.00
2018-11-06T22:26:49.713Z,100.00
2018-11-06T22:31:53.740Z,100.00
2018-11-06T22:36:57.435Z,100.00
2018-11-06T22:42:01.055Z,100.00
2018-11-06T22:47:05.153Z,100.00
2018-11-06T22:52:08.827Z,100.00
2018-11-06T22:57:12.591Z,100.00
2018-11-06T23:02:16.290Z,100.00
2018-11-06T23:07:25.197Z,100.00
2018-11-06T23:12:31.880Z,100.00
2018-11-06T23:17:36.897Z,100.00
2018-11-06T23:22:41.986Z,100.00
2018-11-06T23:27:47.353Z,100.00
2018-11-06T23:32:53.193Z,100.00
2018-11-06T23:37:58.626Z,100.00
2018-11-06T23:43:03.634Z,100.00
2018-11-06T23:48:08.704Z,100.00
2018-11-06T23:53:13.724Z,100.00
2018-11-06T23:58:17.392Z,100.00
